Time;durP1;ratioP1;P1;durP2;ratioP2;P2;SDS_P1;SDS_P2;PMS_P1;PMS_P2;Temp;Humidity;BMP_temperature;BMP_pressure;BME280_temperature;BME280_humidity;BME280_pressure;Samples;Min_cycle;Max_cycle;Signal;HPM_P1;HPM_P2
2022/12/10 00:01:23;;;;;;;17.92;6.95;;;;;;;;;;5068591;28;20028;-70
2022/12/10 00:03:49;;;;;;;18.38;6.95;;;;;;;;;;5065360;28;20031;-70
2022/12/10 00:06:16;;;;;;;18.58;6.93;;;;;;;;;;5065422;28;20424;-70
2022/12/10 00:08:41;;;;;;;17.10;6.78;;;;;;;;;;5062413;28;20091;-70
2022/12/10 00:11:07;;;;;;;18.05;6.47;;;;;;;;;;5046101;28;20029;-70
2022/12/10 00:13:33;;;;;;;11.73;5.90;;;;;;;;;;5066956;28;20024;-70
2022/12/10 00:15:59;;;;;;;18.38;6.35;;;;;;;;;;5060321;28;20063;-70
2022/12/10 00:18:24;;;;;;;16.55;6.50;;;;;;;;;;5067219;28;20067;-70
2022/12/10 00:20:49;;;;;;;16.80;6.00;;;;;;;;;;5063619;28;20025;-70
2022/12/10 00:23:15;;;;;;;16.23;6.40;;;;;;;;;;5065137;28;20349;-70
2022/12/10 00:25:40;;;;;;;15.80;7.27;;;;;;;;;;5064072;28;20039;-70
2022/12/10 00:28:05;;;;;;;17.07;7.10;;;;;;;;;;5065397;28;20742;-70
2022/12/10 00:30:30;;;;;;;20.47;6.87;;;;;;;;;;5045368;28;20673;-70
2022/12/10 00:32:55;;;;;;;12.13;6.17;;;;;;;;;;5063295;28;20494;-70
2022/12/10 00:35:21;;;;;;;9.93;5.33;;;;;;;;;;5061008;28;20505;-70
2022/12/10 00:37:46;;;;;;;14.37;6.13;;;;;;;;;;5062912;28;20474;-70
2022/12/10 00:40:11;;;;;;;15.53;6.73;;;;;;;;;;5068704;28;20478;-70
2022/12/10 00:42:36;;;;;;;15.20;6.50;;;;;;;;;;5069981;28;20024;-70
2022/12/10 00:45:02;;;;;;;21.00;6.30;;;;;;;;;;5064279;28;20025;-70
2022/12/10 00:47:27;;;;;;;17.58;6.38;;;;;;;;;;5066015;28;20265;-70
2022/12/10 00:49:53;;;;;;;21.60;7.27;;;;;;;;;;5063135;28;20075;-70
2022/12/10 00:52:18;;;;;;;12.63;6.27;;;;;;;;;;5047033;28;20344;-70
2022/12/10 00:54:43;;;;;;;16.47;6.57;;;;;;;;;;5066258;28;20442;-70
2022/12/10 00:57:08;;;;;;;19.57;6.80;;;;;;;;;;5044538;28;20052;-69
2022/12/10 00:59:34;;;;;;;15.17;7.20;;;;;;;;;;5041908;28;20029;-70
2022/12/10 01:01:59;;;;;;;16.87;6.73;;;;;;;;;;5048990;28;20833;-70
2022/12/10 01:04:24;;;;;;;19.83;7.37;;;;;;;;;;5048544;28;20266;-69
2022/12/10 01:06:51;;;;;;;16.87;7.10;;;;;;;;;;5046945;28;20377;-70
2022/12/10 01:09:24;;;;;;;13.45;6.82;;;;;;;;;;5047777;28;20634;-69
2022/12/10 01:11:50;;;;;;;17.42;6.88;;;;;;;;;;5041625;28;20026;-70
2022/12/10 01:14:18;;;;;;;23.38;7.40;;;;;;;;;;5042883;28;20541;-70
2022/12/10 01:16:44;;;;;;;16.42;7.03;;;;;;;;;;5045106;28;20755;-70
2022/12/10 01:19:09;;;;;;;16.35;7.15;;;;;;;;;;5045471;28;20125;-69
2022/12/10 01:21:35;;;;;;;16.58;7.18;;;;;;;;;;5044051;28;20491;-69
2022/12/10 01:24:00;;;;;;;15.57;6.65;;;;;;;;;;5045653;28;20040;-70
2022/12/10 01:26:26;;;;;;;11.98;6.07;;;;;;;;;;5042031;28;20025;-69
2022/12/10 01:28:52;;;;;;;18.85;7.10;;;;;;;;;;5044095;28;20075;-70
2022/12/10 01:31:24;;;;;;;15.23;6.32;;;;;;;;;;5044782;28;20013;-69
2022/12/10 01:33:50;;;;;;;14.48;6.88;;;;;;;;;;5041973;28;20029;-69
2022/12/10 01:36:17;;;;;;;17.42;6.70;;;;;;;;;;5039676;28;20036;-69
2022/12/10 01:38:42;;;;;;;17.42;6.85;;;;;;;;;;5040047;28;20066;-69
2022/12/10 01:41:12;;;;;;;17.50;6.43;;;;;;;;;;5049004;28;20036;-69
2022/12/10 01:44:07;;;;;;;11.52;6.00;;;;;;;;;;5047684;28;20122;-69
2022/12/10 01:46:33;;;;;;;11.18;6.28;;;;;;;;;;5001707;28;20040;-68
2022/12/10 01:48:59;;;;;;;13.48;5.78;;;;;;;;;;4989574;28;20113;-68
2022/12/10 01:51:26;;;;;;;16.67;6.03;;;;;;;;;;5005525;28;20116;-71
2022/12/10 01:53:51;;;;;;;12.15;5.75;;;;;;;;;;5001841;28;20037;-70
2022/12/10 01:56:18;;;;;;;12.80;5.95;;;;;;;;;;4987044;28;20029;-70
2022/12/10 01:58:43;;;;;;;16.10;6.40;;;;;;;;;;5005535;28;20113;-70
2022/12/10 02:01:27;;;;;;;9.63;6.10;;;;;;;;;;5003805;28;20448;-70
2022/12/10 02:04:11;;;;;;;16.35;5.97;;;;;;;;;;5005300;28;20119;-71
2022/12/10 02:06:41;;;;;;;14.13;6.57;;;;;;;;;;5005529;28;20473;-70
2022/12/10 02:09:07;;;;;;;14.90;6.18;;;;;;;;;;5004729;28;20076;-70
2022/12/10 02:11:41;;;;;;;13.13;6.40;;;;;;;;;;4981801;28;20546;-70
2022/12/10 02:14:14;;;;;;;13.63;5.63;;;;;;;;;;5004624;28;20499;-70
2022/12/10 02:16:47;;;;;;;12.88;5.97;;;;;;;;;;4983339;28;20040;-70
2022/12/10 02:19:30;;;;;;;12.93;6.30;;;;;;;;;;5001221;28;20030;-70
2022/12/10 02:21:55;;;;;;;14.55;6.03;;;;;;;;;;5006180;28;20058;-70
2022/12/10 02:24:25;;;;;;;19.13;6.10;;;;;;;;;;5047836;28;20071;-70
2022/12/10 02:27:09;;;;;;;14.10;6.07;;;;;;;;;;5041060;28;20048;-70
2022/12/10 02:29:35;;;;;;;15.60;6.32;;;;;;;;;;5041744;28;20032;-70
2022/12/10 02:32:04;;;;;;;15.88;6.45;;;;;;;;;;5040478;28;20029;-70
2022/12/10 02:34:33;;;;;;;15.47;6.70;;;;;;;;;;5046026;28;20433;-70
2022/12/10 02:37:01;;;;;;;15.82;7.18;;;;;;;;;;5045229;28;20029;-70
2022/12/10 02:39:29;;;;;;;17.75;8.18;;;;;;;;;;5047503;28;20108;-70
2022/12/10 02:41:54;;;;;;;18.95;7.43;;;;;;;;;;5043802;28;20051;-70
2022/12/10 02:44:21;;;;;;;16.63;7.50;;;;;;;;;;5043263;28;20033;-70
2022/12/10 02:46:47;;;;;;;21.35;7.88;;;;;;;;;;5038892;28;20039;-70
2022/12/10 02:49:14;;;;;;;16.20;7.47;;;;;;;;;;5035954;28;20040;-70
2022/12/10 02:51:39;;;;;;;18.13;7.43;;;;;;;;;;5044584;28;20483;-70
2022/12/10 02:54:07;;;;;;;22.92;8.10;;;;;;;;;;5042982;28;20032;-70
2022/12/10 02:56:49;;;;;;;13.88;6.80;;;;;;;;;;5044361;28;20029;-70
2022/12/10 02:59:24;;;;;;;13.77;6.57;;;;;;;;;;5061999;28;20033;-71
2022/12/10 03:02:00;;;;;;;17.30;7.35;;;;;;;;;;5060343;28;20036;-70
2022/12/10 03:04:29;;;;;;;19.80;7.07;;;;;;;;;;5064029;28;20024;-70
2022/12/10 03:07:01;;;;;;;15.85;7.20;;;;;;;;;;5044888;28;20553;-70
2022/12/10 03:09:30;;;;;;;13.52;6.72;;;;;;;;;;5060971;28;20059;-70
2022/12/10 03:11:58;;;;;;;22.33;8.57;;;;;;;;;;5045134;28;20027;-70
2022/12/10 03:14:27;;;;;;;23.70;7.35;;;;;;;;;;5062924;28;20041;-69
2022/12/10 03:16:56;;;;;;;17.30;7.65;;;;;;;;;;5061037;28;20475;-69
2022/12/10 03:19:24;;;;;;;14.30;7.03;;;;;;;;;;5026179;28;20035;-69
2022/12/10 03:21:50;;;;;;;15.85;7.82;;;;;;;;;;5044717;28;20602;-69
2022/12/10 03:24:16;;;;;;;19.10;7.80;;;;;;;;;;5060077;28;20040;-69
2022/12/10 03:26:43;;;;;;;21.17;8.10;;;;;;;;;;5064095;28;20095;-69
2022/12/10 03:29:10;;;;;;;14.07;7.18;;;;;;;;;;5064510;28;20488;-70
2022/12/10 03:31:37;;;;;;;17.75;8.13;;;;;;;;;;5065208;28;20470;-69
2022/12/10 03:34:04;;;;;;;15.90;7.88;;;;;;;;;;5064414;28;20535;-69
2022/12/10 03:36:29;;;;;;;21.50;7.75;;;;;;;;;;5070299;28;20081;-70
2022/12/10 03:38:55;;;;;;;19.55;8.07;;;;;;;;;;5066968;28;20104;-69
2022/12/10 03:41:20;;;;;;;20.13;8.20;;;;;;;;;;5068650;28;20462;-70
2022/12/10 03:43:51;;;;;;;18.25;8.73;;;;;;;;;;5066415;28;20027;-70
2022/12/10 03:46:17;;;;;;;17.42;8.25;;;;;;;;;;5065195;28;20093;-70
2022/12/10 03:48:42;;;;;;;17.13;7.85;;;;;;;;;;5063625;28;20028;-69
2022/12/10 03:51:07;;;;;;;18.70;7.63;;;;;;;;;;5054132;28;20024;-69
2022/12/10 03:53:32;;;;;;;17.47;7.90;;;;;;;;;;5065871;28;20098;-69
2022/12/10 03:55:57;;;;;;;19.33;7.73;;;;;;;;;;5060047;28;20039;-69
2022/12/10 03:58:23;;;;;;;18.67;7.97;;;;;;;;;;5068822;28;20299;-69
2022/12/10 04:00:48;;;;;;;16.77;7.30;;;;;;;;;;5055141;28;20032;-70
2022/12/10 04:03:13;;;;;;;21.93;7.57;;;;;;;;;;5049905;28;20028;-69
2022/12/10 04:05:38;;;;;;;15.60;7.83;;;;;;;;;;5067950;28;20029;-70
2022/12/10 04:08:04;;;;;;;17.10;8.33;;;;;;;;;;5068465;28;20044;-69
2022/12/10 04:10:29;;;;;;;14.85;7.85;;;;;;;;;;5063798;28;20028;-69
2022/12/10 04:18:22;;;;;;;16.65;8.70;;;;;;;;;;5063290;28;20039;-69
2022/12/10 04:28:59;;;;;;;17.08;8.05;;;;;;;;;;5066778;28;20075;-68
2022/12/10 04:31:24;;;;;;;19.87;8.77;;;;;;;;;;5049612;28;20446;-69
2022/12/10 04:33:49;;;;;;;22.00;8.33;;;;;;;;;;5061676;28;20025;-69
2022/12/10 04:36:15;;;;;;;15.33;8.00;;;;;;;9.44;nan;99211.81;5064078;28;20028;-69
2022/12/10 04:38:40;;;;;;;16.95;8.07;;;;;;;;;;5063852;28;20021;-69
2022/12/10 04:41:15;;;;;;;17.17;8.00;;;;;;;;;;5066344;28;20051;-69
2022/12/10 04:43:40;;;;;;;18.17;8.48;;;;;;;;;;5066456;28;20057;-69
2022/12/10 04:46:05;;;;;;;14.25;7.57;;;;;;;;;;5066612;28;20070;-69
2022/12/10 04:48:30;;;;;;;19.13;8.23;;;;;;;;;;5065986;28;20039;-68
2022/12/10 04:50:56;;;;;;;17.27;8.27;;;;;;;;;;5049752;28;20509;-68
2022/12/10 04:53:22;;;;;;;17.07;7.50;;;;;;;;;;5046600;28;20496;-69
2022/12/10 04:55:47;;;;;;;20.98;8.13;;;;;;;;;;5063367;28;20020;-69
2022/12/10 04:58:12;;;;;;;17.90;7.65;;;;;;;;;;5065636;28;20494;-69
2022/12/10 05:00:38;;;;;;;14.48;7.25;;;;;;;;;;5066054;28;20466;-69
2022/12/10 05:03:03;;;;;;;15.03;8.07;;;;;;;;;;5065164;28;20044;-68
2022/12/10 05:05:28;;;;;;;18.03;8.10;;;;;;;;;;5046632;28;20340;-69
2022/12/10 05:07:53;;;;;;;17.40;8.70;;;;;;;;;;5060681;28;20028;-69
2022/12/10 05:10:19;;;;;;;19.20;8.53;;;;;;;;;;5070391;28;20030;-69
2022/12/10 05:12:44;;;;;;;17.15;8.93;;;;;;;;;;5063974;28;20048;-68
2022/12/10 05:15:09;;;;;;;20.80;9.40;;;;;;;;;;5063172;28;20107;-69
2022/12/10 05:17:35;;;;;;;18.13;9.27;;;;;;;;;;5059363;28;20739;-69
2022/12/10 05:20:00;;;;;;;21.03;9.67;;;;;;;;;;5065748;28;20103;-68
2022/12/10 05:25:09;;;;;;;23.30;9.95;;;;;;;;;;5062046;28;20261;-69
2022/12/10 05:27:34;;;;;;;22.23;10.13;;;;;;;;;;5060590;28;20025;-69
2022/12/10 05:29:59;;;;;;;25.38;10.60;;;;;;;;;;5063126;28;20273;-69
2022/12/10 05:32:25;;;;;;;23.45;9.98;;;;;;;;;;5044544;28;20074;-68
2022/12/10 05:34:50;;;;;;;19.38;9.98;;;;;;;;;;5066523;28;20032;-69
2022/12/10 05:37:15;;;;;;;20.73;9.43;;;;;;;;;;5061121;28;20070;-69
2022/12/10 05:39:41;;;;;;;23.20;10.93;;;;;;;;;;5061949;28;20408;-68
2022/12/10 05:42:07;;;;;;;16.57;10.47;;;;;;;;;;5064341;28;20281;-69
2022/12/10 05:44:32;;;;;;;24.73;9.95;;;;;;;9.29;nan;99167.75;5063881;28;20028;-66
2022/12/10 05:46:57;;;;;;;21.70;9.52;;;;;;;;;;5060451;28;20024;-68
2022/12/10 05:49:22;;;;;;;18.92;9.40;;;;;;;;;;5055181;28;20024;-69
2022/12/10 05:51:48;;;;;;;24.40;9.70;;;;;;;;;;5053931;28;20475;-69
2022/12/10 05:54:13;;;;;;;19.47;9.10;;;;;;;;;;5057210;28;20285;-69
2022/12/10 05:56:38;;;;;;;26.95;9.98;;;;;;;;;;5052156;28;20372;-68
2022/12/10 05:59:04;;;;;;;15.52;9.13;;;;;;;;;;5055284;28;20021;-68
2022/12/10 06:01:34;;;;;;;17.60;9.43;;;;;;;;;;5054946;28;20020;-69
2022/12/10 06:04:00;;;;;;;17.83;9.55;;;;;;;;;;5053731;28;20658;-69
2022/12/10 06:06:27;;;;;;;21.67;10.55;;;;;;;;;;5056633;28;20117;-68
2022/12/10 06:08:53;;;;;;;22.30;10.30;;;;;;;;;;5058141;28;20537;-68
2022/12/10 06:11:18;;;;;;;23.60;10.70;;;;;;;;;;5041198;28;20028;-69
2022/12/10 06:13:43;;;;;;;21.95;9.13;;;;;;;;;;5056452;28;20032;-69
2022/12/10 06:16:10;;;;;;;23.33;10.43;;;;;;;;;;5058362;28;20017;-69
2022/12/10 06:18:36;;;;;;;23.27;10.27;;;;;;;;;;5054689;28;20017;-69
2022/12/10 06:21:08;;;;;;;20.30;9.38;;;;;;;;;;5055547;28;20104;-69
2022/12/10 06:23:34;;;;;;;19.15;9.82;;;;;;;;;;5058634;28;20039;-69
2022/12/10 06:26:03;;;;;;;21.60;9.48;;;;;;;;;;5055471;28;20029;-69
2022/12/10 06:28:28;;;;;;;19.05;10.50;;;;;;;;;;5056312;28;20031;-70
2022/12/10 06:30:53;;;;;;;18.97;10.07;;;;;;;;;;5056174;28;20033;-67
2022/12/10 06:33:18;;;;;;;17.83;9.50;;;;;;;;;;5063906;28;20074;-69
2022/12/10 06:35:44;;;;;;;21.33;9.33;;;;;;;;;;5059122;28;20028;-70
2022/12/10 06:38:09;;;;;;;17.43;8.60;;;;;;;;;;5064162;28;20116;-70
2022/12/10 06:40:34;;;;;;;21.47;9.97;;;;;;;;;;5059698;28;20391;-70
2022/12/10 06:42:59;;;;;;;19.60;8.33;;;;;;;;;;5064677;28;20086;-68
2022/12/10 06:45:24;;;;;;;16.50;8.20;;;;;;;;;;5060993;28;20031;-68
2022/12/10 06:47:50;;;;;;;21.60;9.17;;;;;;;;;;5054707;28;20040;-68
2022/12/10 06:50:15;;;;;;;19.83;9.83;;;;;;;;;;5041302;28;20052;-69
2022/12/10 06:52:40;;;;;;;19.03;9.87;;;;;;;;;;5061805;28;20281;-69
2022/12/10 06:55:06;;;;;;;23.57;9.83;;;;;;;;;;5062164;28;20368;-68
2022/12/10 06:57:31;;;;;;;27.90;10.05;;;;;;;;;;5062269;28;20300;-68
2022/12/10 06:59:56;;;;;;;22.40;11.40;;;;;;;;;;5060871;28;20032;-72
2022/12/10 07:02:21;;;;;;;21.60;10.73;;;;;;;;;;5044152;28;20028;-69
2022/12/10 07:04:47;;;;;;;21.07;11.60;;;;;;;;;;5068010;28;20277;-69
2022/12/10 07:07:12;;;;;;;22.27;10.05;;;;;;;;;;5068073;28;20124;-69
2022/12/10 07:09:37;;;;;;;16.90;9.77;;;;;;;;;;5068034;28;20024;-69
2022/12/10 07:12:03;;;;;;;20.75;9.23;;;;;;;;;;5049943;28;20032;-69
2022/12/10 07:14:28;;;;;;;18.30;9.07;;;;;;;;;;5061381;28;20032;-68
2022/12/10 07:16:53;;;;;;;20.63;9.63;;;;;;;;;;5068758;28;20036;-69
2022/12/10 07:19:19;;;;;;;17.50;9.10;;;;;;;;;;5064033;28;20032;-67
2022/12/10 07:21:45;;;;;;;17.97;9.13;;;;;;;;;;5063580;28;20123;-69
2022/12/10 07:24:12;;;;;;;20.70;9.27;;;;;;;;;;5067306;28;20834;-68
2022/12/10 07:26:38;;;;;;;21.52;10.05;;;;;;;;;;5049206;28;20124;-68
2022/12/10 07:29:04;;;;;;;20.08;9.13;;;;;;;;;;5058132;28;20615;-68
2022/12/10 07:31:30;;;;;;;21.90;9.48;;;;;;;;;;5064818;28;20381;-69
2022/12/10 07:33:56;;;;;;;23.80;10.23;;;;;;;;;;5045619;28;20029;-69
2022/12/10 07:36:22;;;;;;;20.13;9.70;;;;;;;;;;5063306;28;20021;-69
2022/12/10 07:38:47;;;;;;;24.77;10.32;;;;;;;;;;5042587;28;20043;-69
2022/12/10 07:41:13;;;;;;;18.75;9.82;;;;;;;;;;5042584;28;20047;-68
2022/12/10 07:43:42;;;;;;;21.07;9.97;;;;;;;;;;5062697;28;20473;-69
2022/12/10 07:46:12;;;;;;;20.02;9.70;;;;;;;;;;5064222;28;20335;-68
2022/12/10 07:48:38;;;;;;;26.88;13.00;;;;;;;;;;5064818;28;20032;-68
2022/12/10 07:51:04;;;;;;;94.85;35.88;;;;;;;;;;5063929;28;20140;-68
2022/12/10 07:53:30;;;;;;;95.03;36.45;;;;;;;;;;5052818;28;20115;-68
2022/12/10 07:55:55;;;;;;;34.05;14.95;;;;;;;;;;5061042;28;20068;-68
2022/12/10 07:58:20;;;;;;;29.97;12.20;;;;;;;;;;5061110;28;20037;-68
2022/12/10 08:00:45;;;;;;;32.90;13.17;;;;;;;;;;5057504;28;20285;-69
2022/12/10 08:03:11;;;;;;;24.93;12.70;;;;;;;;;;5060228;28;20745;-68
2022/12/10 08:05:36;;;;;;;23.08;11.52;;;;;;;;;;5066250;28;20020;-69
2022/12/10 08:08:01;;;;;;;22.73;11.50;;;;;;;;;;5060921;28;21004;-67
2022/12/10 08:10:26;;;;;;;23.83;10.33;;;;;;;;;;5064163;28;20048;-68
2022/12/10 08:12:52;;;;;;;21.20;10.83;;;;;;;;;;5048700;28;20280;-69
2022/12/10 08:15:17;;;;;;;19.87;10.90;;;;;;;;;;5060071;28;20447;-68
2022/12/10 08:17:42;;;;;;;22.57;10.57;;;;;;;;;;5046694;28;20273;-68
2022/12/10 08:20:08;;;;;;;19.80;9.80;;;;;;;;;;5065852;28;20036;-68
2022/12/10 08:22:34;;;;;;;24.05;10.35;;;;;;;;;;5049237;28;20120;-67
2022/12/10 08:24:59;;;;;;;21.25;11.18;;;;;;;;;;5064792;28;20048;-68
2022/12/10 08:27:24;;;;;;;37.55;11.57;;;;;;;;;;5057158;28;20031;-69
2022/12/10 08:29:50;;;;;;;22.07;11.40;;;;;;;;;;5058945;28;20100;-70
2022/12/10 08:32:15;;;;;;;26.07;11.50;;;;;;;;;;5059881;28;20284;-69
2022/12/10 08:34:40;;;;;;;19.87;10.50;;;;;;;;;;5063451;28;20360;-69
2022/12/10 08:37:05;;;;;;;23.03;11.40;;;;;;;;;;5060513;28;20028;-69
2022/12/10 08:39:30;;;;;;;19.47;11.60;;;;;;;;;;5064635;28;20020;-70
2022/12/10 08:41:56;;;;;;;27.67;13.10;;;;;;;;;;5064227;28;20371;-69
2022/12/10 08:44:21;;;;;;;25.47;12.90;;;;;;;;;;5061890;28;20068;-68
2022/12/10 08:46:46;;;;;;;24.53;14.33;;;;;;;;;;5041018;28;20028;-69
2022/12/10 08:49:11;;;;;;;30.17;15.33;;;;;;;;;;5062327;28;20052;-67
2022/12/10 08:51:37;;;;;;;27.48;14.63;;;;;;;;;;5060820;28;20494;-71
2022/12/10 08:54:02;;;;;;;31.23;14.53;;;;;;;;;;5061597;28;20105;-68
2022/12/10 08:56:27;;;;;;;27.40;14.75;;;;;;;;;;5055475;28;20274;-68
2022/12/10 08:58:53;;;;;;;26.85;15.70;;;;;;;;;;5047388;28;20581;-69
2022/12/10 09:01:18;;;;;;;28.50;15.50;;;;;;;;;;5048604;28;20032;-68
2022/12/10 09:03:44;;;;;;;29.35;15.43;;;;;;;;;;5049079;28;20474;-68
2022/12/10 09:06:11;;;;;;;32.33;15.57;;;;;;;;;;5047507;28;20452;-68
2022/12/10 09:08:36;;;;;;;27.65;15.80;;;;;;;;;;5065282;28;20032;-68
2022/12/10 09:11:10;;;;;;;33.72;15.68;;;;;;;;;;5040977;28;20029;-68
2022/12/10 09:13:35;;;;;;;32.35;14.57;;;;;;;;;;5063468;28;20030;-67
2022/12/10 09:16:00;;;;;;;25.17;13.93;;;;;;;;;;5061128;28;20613;-72
2022/12/10 09:18:26;;;;;;;24.52;13.13;;;;;;;;;;5047289;28;20020;-71
2022/12/10 09:20:51;;;;;;;25.57;13.07;;;;;;;;;;5066861;28;20033;-71
2022/12/10 09:23:16;;;;;;;31.90;15.00;;;;;;;;;;5046405;28;20035;-73
2022/12/10 09:25:41;;;;;;;1999.90;895.43;;;;;;;;;;5034086;28;20045;-72
2022/12/10 09:28:07;;;;;;;47.90;23.88;;;;;;;;;;5057404;28;20904;-72
2022/12/10 09:30:32;;;;;;;40.47;19.10;;;;;;;;;;5054483;28;20032;-73
2022/12/10 09:32:58;;;;;;;29.10;15.63;;;;;;;;;;5042135;28;20607;-72
2022/12/10 09:35:23;;;;;;;26.83;13.88;;;;;;;;;;5046719;28;20033;-72
2022/12/10 09:37:48;;;;;;;22.35;12.50;;;;;;;;;;5065256;28;20043;-72
2022/12/10 09:40:18;;;;;;;24.13;11.73;;;;;;;;;;5035882;28;20486;-72
2022/12/10 09:42:46;;;;;;;25.42;11.68;;;;;;;;;;5060386;28;20021;-72
2022/12/10 09:45:26;;;;;;;24.92;11.15;;;;;;;;;;5046918;28;20025;-74
2022/12/10 09:47:58;;;;;;;21.80;10.55;;;;;;;;;;5065373;28;20112;-70
2022/12/10 09:50:29;;;;;;;19.27;10.48;;;;;;;;;;5044834;28;20017;-71
2022/12/10 09:52:57;;;;;;;19.65;10.82;;;;;;;;;;5066134;28;20024;-70
2022/12/10 09:55:27;;;;;;;20.95;11.02;;;;;;;;;;5048435;28;20081;-70
2022/12/10 09:57:53;;;;;;;22.25;11.85;;;;;;;;;;5046884;28;20052;-70
2022/12/10 10:00:21;;;;;;;20.35;10.95;;;;;;;;;;5066895;28;20543;-69
2022/12/10 10:02:47;;;;;;;26.75;11.90;;;;;;;;;;5067167;28;20024;-70
2022/12/10 10:05:24;;;;;;;22.80;10.68;;;;;;;;;;5064293;28;20032;-70
2022/12/10 10:07:52;;;;;;;24.00;10.93;;;;;;;;;;5064730;28;20514;-69
2022/12/10 10:10:25;;;;;;;17.05;10.00;;;;;;;;;;5063946;28;20032;-70
2022/12/10 10:12:55;;;;;;;21.20;10.63;;;;;;;;;;5045429;28;20053;-68
2022/12/10 10:15:25;;;;;;;23.58;11.55;;;;;;;;;;5063732;28;20046;-68
2022/12/10 10:17:53;;;;;;;19.50;11.45;;;;;;;;;;5040052;28;20123;-68
2022/12/10 10:20:18;;;;;;;25.10;11.88;;;;;;;;;;5049759;28;20032;-68
2022/12/10 10:22:44;;;;;;;23.48;11.88;;;;;;;;;;5058252;28;20020;-68
2022/12/10 10:25:16;;;;;;;23.30;12.00;;;;;;;;;;5060806;28;20029;-67
2022/12/10 10:27:41;;;;;;;18.63;11.02;;;;;;;;;;5041906;28;20821;-68
2022/12/10 10:30:13;;;;;;;19.90;11.25;;;;;;;;;;5037624;28;20021;-68
2022/12/10 10:32:38;;;;;;;23.80;11.23;;;;;;;;;;5064115;28;20025;-68
2022/12/10 10:35:05;;;;;;;23.50;11.63;;;;;;;;;;5067237;28;20036;-69
2022/12/10 10:37:39;;;;;;;25.88;11.35;;;;;;;;;;5047456;28;20486;-69
2022/12/10 10:40:05;;;;;;;24.58;11.07;;;;;;;;;;5061538;28;20086;-68
2022/12/10 10:42:38;;;;;;;21.13;11.70;;;;;;;;;;5056369;28;20419;-69
2022/12/10 10:45:04;;;;;;;24.15;10.80;;;;;;;;;;5055648;28;20061;-69
2022/12/10 10:47:34;;;;;;;16.55;10.23;;;;;;;;;;5037863;28;20016;-69
2022/12/10 10:49:59;;;;;;;;;;;;;;;;;;5036979;28;20471;-69
2022/12/10 10:52:27;;;;;;;20.80;10.90;;;;;;;;;;5058404;28;19912;-68
2022/12/10 10:54:53;;;;;;;26.13;13.55;;;;;;;;;;5058635;28;20036;-68
2022/12/10 10:57:21;;;;;;;25.27;13.33;;;;;;;;;;5044819;28;20548;-69
2022/12/10 10:59:47;;;;;;;22.80;12.77;;;;;;;;;;5058856;28;20049;-70
2022/12/10 11:02:35;;;;;;;21.67;11.85;;;;;;;;;;5062301;28;20102;-69
2022/12/10 11:05:07;;;;;;;22.77;11.23;;;;;;;;;;5067312;28;20166;-69
2022/12/10 11:07:40;;;;;;;19.27;10.90;;;;;;;;;;5061587;28;20043;-69
2022/12/10 11:10:25;;;;;;;22.33;10.15;;;;;;;;;;5058301;28;20036;-69
2022/12/10 11:12:56;;;;;;;18.73;11.07;;;;;;;;;;5053328;28;20044;-69
2022/12/10 11:15:21;;;;;;;25.60;12.23;;;;;;;;;;5052110;28;20036;-68
2022/12/10 11:17:48;;;;;;;21.70;12.50;;;;;;;;;;5059502;28;20039;-70
2022/12/10 11:20:21;;;;;;;26.73;13.95;;;;;;;;;;5046851;28;20371;-69
2022/12/10 11:23:08;;;;;;;22.75;13.27;;;;;;;;;;5044721;28;20178;-70
2022/12/10 11:25:47;;;;;;;24.60;12.23;;;;;;;;;;5055672;28;20032;-70
2022/12/10 11:28:18;;;;;;;19.40;10.88;;;;;;;;;;5056172;28;20830;-70
2022/12/10 11:30:48;;;;;;;18.63;11.45;;;;;;;;;;5050608;28;20028;-69
2022/12/10 11:33:25;;;;;;;20.17;10.73;;;;;;;;;;5056184;28;20017;-69
2022/12/10 11:36:10;;;;;;;18.17;10.00;;;;;;;;;;5034534;28;20398;-70
2022/12/10 11:38:47;;;;;;;21.35;11.32;;;;;;;;;;5033142;28;20112;-69
2022/12/10 11:41:15;;;;;;;16.40;10.63;;;;;;;;;;5052424;28;20042;-70
2022/12/10 11:43:53;;;;;;;19.63;10.18;;;;;;;;;;5055062;28;20035;-70
2022/12/10 11:46:18;;;;;;;21.40;9.93;;;;;;;;;;5034573;28;20021;-69
2022/12/10 11:48:53;;;;;;;19.33;10.30;;;;;;;;;;5053175;28;20028;-69
2022/12/10 11:51:19;;;;;;;18.33;9.60;;;;;;;;;;5058643;28;20336;-68
2022/12/10 11:53:47;;;;;;;17.48;9.95;;;;;;;;;;5058535;28;20052;-68
2022/12/10 11:56:24;;;;;;;18.05;9.98;;;;;;;;;;5055942;28;20021;-69
2022/12/10 11:58:49;;;;;;;16.48;9.50;;;;;;;;;;5039791;28;20082;-69
2022/12/10 12:01:33;;;;;;;21.27;9.73;;;;;;;;;;5036247;28;20072;-68
2022/12/10 12:04:17;;;;;;;14.30;8.82;;;;;;;;;;5036114;28;20072;-69
2022/12/10 12:06:45;;;;;;;17.58;9.38;;;;;;;;;;5039474;28;20029;-70
2022/12/10 12:09:31;;;;;;;15.88;9.27;;;;;;;;;;5041984;28;20055;-71
2022/12/10 12:12:02;;;;;;;18.10;8.93;;;;;;;;;;5043504;28;20117;-69
2022/12/10 12:14:30;;;;;;;17.83;9.30;;;;;;;;;;5039380;28;20033;-68
2022/12/10 12:17:04;;;;;;;18.77;9.65;;;;;;;;;;5038453;28;20493;-69
2022/12/10 12:19:47;;;;;;;16.63;9.15;;;;;;;;;;5037164;28;20021;-67
2022/12/10 12:22:21;;;;;;;18.15;9.48;;;;;;;;;;5049756;28;20029;-69
2022/12/10 12:24:48;;;;;;;21.45;10.38;;;;;;;;;;5045493;28;20557;-71
2022/12/10 12:27:13;;;;;;;16.80;10.30;;;;;;;;;;5047937;28;20103;-69
2022/12/10 12:29:46;;;;;;;18.13;10.57;;;;;;;;;;5047002;28;20120;-67
2022/12/10 12:32:19;;;;;;;22.85;10.82;;;;;;;;;;5042365;28;20025;-69
2022/12/10 12:34:51;;;;;;;19.30;10.65;;;;;;;;;;5046617;28;20112;-69
2022/12/10 12:37:17;;;;;;;18.13;10.55;;;;;;;;;;5043000;28;20556;-70
2022/12/10 12:39:59;;;;;;;19.05;10.88;;;;;;;;;;5047461;28;20025;-72
2022/12/10 12:42:29;;;;;;;24.27;10.85;;;;;;;;;;5044399;28;20037;-71
2022/12/10 12:45:01;;;;;;;20.60;10.90;;;;;;;;;;5046708;28;20040;-72
2022/12/10 12:47:45;;;;;;;23.80;11.32;;;;;;;;;;5045437;28;20025;-72
2022/12/10 12:50:31;;;;;;;21.40;11.68;;;;;;;;;;5041419;28;20034;-71
2022/12/10 12:52:57;;;;;;;18.92;11.38;;;;;;;;;;5037610;28;20029;-70
2022/12/10 12:55:23;;;;;;;22.25;12.18;;;;;;;;;;5046523;28;20032;-73
2022/12/10 12:57:51;;;;;;;22.40;11.63;;;;;;;;;;5060687;28;20057;-70
2022/12/10 13:00:21;;;;;;;21.52;11.70;;;;;;;;;;5045544;28;20536;-70
2022/12/10 13:02:58;;;;;;;19.90;10.93;;;;;;;;;;5066289;28;20060;-69
2022/12/10 13:05:28;;;;;;;19.20;10.98;;;;;;;;;;5045688;28;20036;-71
2022/12/10 13:08:12;;;;;;;22.92;10.85;;;;;;;;;;5063311;28;20638;-71
2022/12/10 13:10:44;;;;;;;26.60;10.40;;;;;;;;;;5061198;28;20465;-70
2022/12/10 13:13:23;;;;;;;25.52;10.45;;;;;;;;;;5065214;28;20023;-70
2022/12/10 13:15:48;;;;;;;20.63;10.38;;;;;;;;;;5062527;28;20030;-70
2022/12/10 13:18:13;;;;;;;16.35;10.27;;;;;;;;;;5065804;28;20040;-70
2022/12/10 13:21:11;;;;;;;21.90;11.57;;;;;;;;;;5064720;28;20028;-69
2022/12/10 13:23:48;;;;;;;22.20;10.48;;;;;;;;;;5063103;28;20289;-70
2022/12/10 13:26:24;;;;;;;22.38;10.43;;;;;;;;;;5067489;28;20027;-70
2022/12/10 13:28:51;;;;;;;22.20;10.82;;;;;;;;;;5064711;28;20057;-70
2022/12/10 13:31:22;;;;;;;16.35;9.77;;;;;;;;;;5048480;28;20111;-71
2022/12/10 13:33:52;;;;;;;16.67;9.80;;;;;;;;;;5067997;28;20506;-70
2022/12/10 13:36:33;;;;;;;17.92;10.45;;;;;;;;;;5064241;28;20027;-72
2022/12/10 13:39:04;;;;;;;19.67;10.35;;;;;;;;;;5063945;28;20478;-69
2022/12/10 13:44:33;;;;;;;24.60;12.00;;;;;;;;;;5065444;28;20102;-71
2022/12/10 13:47:11;;;;;;;20.80;11.90;;;;;;;12.22;nan;98746.75;5066822;28;20055;-70
2022/12/10 13:49:55;;;;;;;22.88;12.00;;;;;;;;;;5061631;28;20021;-71
2022/12/10 13:52:47;;;;;;;18.55;11.20;;;;;;;;;;5062652;28;20024;-71
2022/12/10 13:55:28;;;;;;;27.48;11.38;;;;;;;;;;5059322;28;20068;-70
2022/12/10 13:58:06;;;;;;;19.52;11.15;;;;;;;;;;5041633;28;20317;-72
2022/12/10 14:00:44;;;;;;;19.95;10.80;;;;;;;;;;5069326;28;20470;-71
2022/12/10 14:03:19;;;;;;;25.98;10.93;;;;;;;;;;5065702;28;20363;-71
2022/12/10 14:05:54;;;;;;;27.20;11.75;;;;;;;;;;5044104;28;20428;-71
2022/12/10 14:08:22;;;;;;;24.23;12.05;;;;;;;;;;5064678;28;20430;-71
2022/12/10 14:10:48;;;;;;;22.25;12.80;;;;;;;;;;5049104;28;20036;-72
2022/12/10 14:13:15;;;;;;;24.75;12.10;;;;;;;;;;5064059;28;20379;-72
2022/12/10 14:15:41;;;;;;;21.65;11.10;;;;;;;;;;5064733;28;20031;-71
2022/12/10 14:18:10;;;;;;;20.52;11.15;;;;;;;;;;5058350;28;20025;-71
2022/12/10 14:20:35;;;;;;;20.67;11.43;;;;;;;;;;5067421;28;20028;-72
2022/12/10 14:23:37;;;;;;;17.55;11.07;;;;;;;;;;5044636;28;20845;-71
2022/12/10 14:26:04;;;;;;;20.83;12.05;;;;;;;;;;5045886;28;20165;-71
2022/12/10 14:28:30;;;;;;;21.75;11.65;;;;;;;12.00;nan;98702.34;5058619;28;20107;-71
2022/12/10 14:30:55;;;;;;;22.73;9.95;;;;;;;;;;5065487;28;20435;-71
2022/12/10 14:33:22;;;;;;;18.48;10.75;;;;;;;;;;5049191;28;20029;-72
2022/12/10 14:35:48;;;;;;;22.17;11.55;;;;;;;;;;5063312;28;20036;-72
2022/12/10 14:38:23;;;;;;;18.83;10.20;;;;;;;;;;5064347;28;20032;-71
2022/12/10 14:40:48;;;;;;;16.95;9.95;;;;;;;;;;5054665;28;20036;-68
2022/12/10 14:43:17;;;;;;;18.83;10.63;;;;;;;;;;5065164;28;20033;-68
2022/12/10 14:45:44;;;;;;;20.42;10.48;;;;;;;;;;5063895;28;20103;-68
2022/12/10 14:48:12;;;;;;;21.42;9.98;;;;;;;;;;5065646;28;20031;-67